Time;durP1;ratioP1;P1;durP2;ratioP2;P2;SDS_P1;SDS_P2;PMS_P1;PMS_P2;Temp;Humidity;BMP_temperature;BMP_pressure;BME280_temperature;BME280_humidity;BME280_pressure;Samples;Min_cycle;Max_cycle;Signal;HPM_P1;HPM_P2
2023/12/30 00:00:25;;;;;;;2.10;1.55;;;;;;;;;;4976301;28;20057;-81
2023/12/30 00:02:52;;;;;;;3.58;1.60;;;;;;;;;;4968485;28;20104;-81
2023/12/30 00:05:19;;;;;;;1.83;1.70;;;;;;;;;;4968178;28;20619;-81
2023/12/30 00:07:46;;;;;;;2.13;1.92;;;;;;;;;;4967844;28;20136;-81
2023/12/30 00:10:13;;;;;;;4.50;1.60;;;;;;;;;;4967899;28;20080;-81
2023/12/30 00:12:40;;;;;;;4.32;1.90;;;;;;;;;;4976120;28;20050;-81
2023/12/30 00:15:07;;;;;;;1.80;1.30;;;;;;;;;;4964205;28;20050;-81
2023/12/30 00:17:34;;;;;;;1.70;1.45;;;;;;;;;;4982204;28;20053;-81
2023/12/30 00:20:01;;;;;;;1.50;1.40;;;;;;;;;;4966121;28;20133;-80
2023/12/30 00:22:28;;;;;;;2.47;1.27;;;;;;;;;;4966939;28;20076;-80
2023/12/30 00:24:55;;;;;;;2.17;1.38;;;;;;;;;;4982969;28;20532;-81
2023/12/30 00:27:22;;;;;;;1.98;1.40;;;;;;;;;;4968156;28;20056;-81
2023/12/30 00:29:49;;;;;;;2.72;1.40;;;;;;;;;;4968992;28;20076;-81
2023/12/30 00:32:17;;;;;;;2.47;1.20;;;;;;;;;;4984143;28;20061;-81
2023/12/30 00:34:43;;;;;;;1.92;1.42;;;;;;;;;;4967349;28;20084;-80
2023/12/30 00:37:13;;;;;;;3.88;1.58;;;;;;;;;;4966103;28;20571;-80
2023/12/30 00:39:41;;;;;;;1.23;1.13;;;;;;;;;;4966913;28;20100;-79
2023/12/30 00:42:08;;;;;;;2.40;1.05;;;;;;;;;;4978215;28;20053;-80
2023/12/30 00:44:34;;;;;;;1.83;1.42;;;;;;;;;;4965808;28;20046;-80
2023/12/30 00:47:01;;;;;;;2.72;1.30;;;;;;;;;;4984989;28;20135;-80
2023/12/30 00:49:28;;;;;;;1.88;1.10;;;;;;;;;;4965633;28;20050;-80
2023/12/30 00:51:55;;;;;;;1.95;1.10;;;;;;;;;;4965942;28;20061;-80
2023/12/30 00:54:22;;;;;;;2.38;1.42;;;;;;;;;;4966548;28;20052;-80
2023/12/30 00:56:48;;;;;;;2.42;1.70;;;;;;;;;;4982339;28;20104;-81
2023/12/30 00:59:16;;;;;;;3.47;1.55;;;;;;;;;;4998881;28;20057;-81
2023/12/30 01:01:43;;;;;;;2.30;1.27;;;;;;;;;;4967335;28;20076;-80
2023/12/30 01:04:12;;;;;;;2.25;1.30;;;;;;;;;;4976769;28;20053;-80
2023/12/30 01:06:39;;;;;;;1.65;1.20;;;;;;;;;;4968013;28;20054;-80
2023/12/30 01:09:06;;;;;;;1.95;1.55;;;;;;;;;;4983899;28;20563;-80
2023/12/30 01:11:34;;;;;;;1.20;1.10;;;;;;;;;;5005556;28;20077;-79
2023/12/30 01:14:01;;;;;;;1.83;1.63;;;;;;;;;;4979412;28;20053;-80
2023/12/30 01:16:27;;;;;;;1.92;1.52;;;;;;;;;;4966608;28;20085;-80
2023/12/30 01:18:54;;;;;;;2.90;1.50;;;;;;;;;;4982349;28;20784;-80
2023/12/30 01:21:22;;;;;;;2.72;1.48;;;;;;;;;;4972150;28;20056;-80
2023/12/30 01:23:48;;;;;;;1.70;1.42;;;;;;;;;;4980143;28;20121;-80
2023/12/30 01:26:15;;;;;;;1.90;1.50;;;;;;;;;;4966292;28;20058;-81
2023/12/30 01:28:42;;;;;;;1.30;1.20;;;;;;;;;;4966802;28;20057;-81
2023/12/30 01:31:09;;;;;;;1.20;1.10;;;;;;;;;;4982049;28;20057;-80
2023/12/30 01:33:36;;;;;;;3.15;1.73;;;;;;;;;;4964972;28;20076;-80
2023/12/30 01:36:04;;;;;;;1.52;1.25;;;;;;;;;;4981340;28;20054;-80
2023/12/30 01:38:30;;;;;;;1.90;1.30;;;;;;;;;;4981022;28;20077;-80
2023/12/30 01:40:57;;;;;;;1.33;1.17;;;;;;;;;;4962072;28;20050;-80
2023/12/30 01:43:29;;;;;;;1.52;1.15;;;;;;;;;;4965344;28;20124;-82
2023/12/30 01:46:01;;;;;;;1.63;1.20;;;;;;;;;;4966237;28;20429;-81
2023/12/30 01:48:28;;;;;;;3.77;1.30;;;;;;;;;;4966711;28;20054;-81
2023/12/30 01:50:57;;;;;;;2.00;1.50;;;;;;;;;;4982464;28;20117;-81
2023/12/30 01:53:25;;;;;;;3.42;1.50;;;;;;;;;;4966918;28;20113;-81
2023/12/30 01:55:52;;;;;;;1.77;1.25;;;;;;;;;;4966778;28;20054;-82
2023/12/30 01:58:20;;;;;;;1.73;1.30;;;;;;;;;;4980711;28;20133;-82
2023/12/30 02:00:48;;;;;;;2.90;1.40;;;;;;;;;;4965823;28;20057;-82
2023/12/30 02:03:17;;;;;;;1.40;1.30;;;;;;;;;;4965937;28;20053;-81
2023/12/30 02:05:47;;;;;;;1.95;1.33;;;;;;;;;;4983557;28;20069;-80
2023/12/30 02:08:15;;;;;;;3.10;1.80;;;;;;;;;;4965003;28;20104;-80
2023/12/30 02:10:42;;;;;;;2.08;1.45;;;;;;;;;;4964815;28;20061;-80
2023/12/30 02:13:09;;;;;;;1.45;1.15;;;;;;;;;;4967250;28;20042;-80
2023/12/30 02:15:37;;;;;;;2.03;1.50;;;;;;;;;;4961952;28;20058;-80
2023/12/30 02:18:04;;;;;;;1.90;1.50;;;;;;;;;;4967619;28;20046;-80
2023/12/30 02:20:31;;;;;;;1.58;1.27;;;;;;;;;;4980054;28;20575;-80
2023/12/30 02:22:58;;;;;;;2.55;1.60;;;;;;;;;;4963815;28;20078;-81
2023/12/30 02:25:25;;;;;;;1.80;1.50;;;;;;;;;;4982480;28;20061;-81
2023/12/30 02:27:52;;;;;;;1.40;1.30;;;;;;;;;;4964959;28;20530;-81
2023/12/30 02:30:21;;;;;;;1.80;1.33;;;;;;;;;;4965145;28;20528;-81
2023/12/30 02:32:48;;;;;;;3.42;1.58;;;;;;;;;;4965606;28;20058;-82
2023/12/30 02:35:15;;;;;;;3.88;1.73;;;;;;;;;;4964880;28;20054;-82
2023/12/30 02:37:42;;;;;;;1.75;1.30;;;;;;;;;;4964334;28;20081;-82
2023/12/30 02:40:09;;;;;;;2.45;1.48;;;;;;;;;;4964519;28;20566;-82
2023/12/30 02:42:36;;;;;;;2.38;1.27;;;;;;;;;;4965501;28;20052;-81
2023/12/30 02:45:03;;;;;;;2.95;1.40;;;;;;;;;;4965361;28;20069;-81
2023/12/30 02:47:30;;;;;;;2.33;1.38;;;;;;;;;;4965257;28;20489;-81
2023/12/30 02:49:57;;;;;;;4.70;1.95;;;;;;;;;;4965494;28;20076;-81
2023/12/30 02:52:24;;;;;;;2.10;1.50;;;;;;;;;;4993918;28;20059;-81
2023/12/30 02:54:51;;;;;;;2.42;1.77;;;;;;;;;;4968229;28;20555;-81
2023/12/30 02:57:18;;;;;;;2.15;1.80;;;;;;;;;;4990989;28;20056;-81
2023/12/30 02:59:45;;;;;;;2.05;1.63;;;;;;;;;;5001110;28;20057;-81
2023/12/30 03:02:12;;;;;;;2.35;1.70;;;;;;;;;;4986058;28;20464;-80
2023/12/30 03:04:39;;;;;;;1.73;1.40;;;;;;;;;;4998879;28;20084;-80
2023/12/30 03:07:05;;;;;;;3.63;2.00;;;;;;;;;;4964196;28;20058;-80
2023/12/30 03:09:32;;;;;;;3.95;2.15;;;;;;;;;;4999769;28;20053;-81
2023/12/30 03:11:59;;;;;;;2.55;1.95;;;;;;;;;;4984599;28;20133;-81
2023/12/30 03:14:26;;;;;;;2.95;1.52;;;;;;;;;;4986480;28;20497;-81
2023/12/30 03:16:53;;;;;;;2.20;1.88;;;;;;;;;;4983955;28;20053;-81
2023/12/30 03:19:19;;;;;;;4.68;1.88;;;;;;;;;;4971445;28;20050;-80
2023/12/30 03:21:47;;;;;;;2.30;1.92;;;;;;;;;;4990001;28;20049;-80
2023/12/30 03:24:14;;;;;;;2.30;1.75;;;;;;;;;;4989511;28;20056;-81
2023/12/30 03:26:41;;;;;;;2.53;1.60;;;;;;;;;;5003607;28;20056;-80
2023/12/30 03:29:07;;;;;;;4.88;2.20;;;;;;;;;;4986479;28;21310;-81
2023/12/30 03:31:35;;;;;;;3.55;1.65;;;;;;;;;;4988844;28;20595;-81
2023/12/30 03:34:02;;;;;;;3.10;1.65;;;;;;;;;;4987737;28;20103;-80
2023/12/30 03:36:29;;;;;;;2.22;1.98;;;;;;;;;;4987673;28;20087;-81
2023/12/30 03:38:56;;;;;;;5.65;1.85;;;;;;;;;;4988893;28;20051;-81
2023/12/30 03:41:24;;;;;;;2.47;2.13;;;;;;;;;;5003833;28;20107;-80
2023/12/30 03:43:51;;;;;;;3.35;2.25;;;;;;;;;;4988389;28;20446;-81
2023/12/30 03:46:18;;;;;;;2.30;1.92;;;;;;;;;;4988878;28;20049;-81
2023/12/30 03:48:45;;;;;;;3.42;1.90;;;;;;;;;;4988148;28;20081;-81
2023/12/30 03:51:12;;;;;;;2.85;2.13;;;;;;;;;;4988773;28;20076;-80
2023/12/30 03:53:39;;;;;;;3.33;1.60;;;;;;;;;;4980502;28;20133;-81
2023/12/30 03:56:06;;;;;;;2.63;1.63;;;;;;;;;;4999991;28;20114;-81
2023/12/30 03:58:33;;;;;;;3.30;2.22;;;;;;;;;;4988673;28;20080;-80
2023/12/30 04:00:59;;;;;;;2.85;1.80;;;;;;;;;;4988539;28;20552;-80
2023/12/30 04:03:26;;;;;;;3.15;1.73;;;;;;;;;;5003747;28;20080;-80
2023/12/30 04:05:53;;;;;;;5.05;1.67;;;;;;;;;;4993864;28;20050;-80
2023/12/30 04:08:20;;;;;;;3.67;1.70;;;;;;;;;;4999543;28;20111;-80
2023/12/30 04:10:47;;;;;;;1.77;1.65;;;;;;;;;;4998020;28;20053;-80
2023/12/30 04:13:14;;;;;;;2.00;1.52;;;;;;;;;;5004197;28;20501;-81
2023/12/30 04:15:40;;;;;;;1.75;1.35;;;;;;;;;;5004615;28;20053;-80
2023/12/30 04:18:07;;;;;;;3.20;1.70;;;;;;;;;;4996154;28;20050;-81
2023/12/30 04:20:34;;;;;;;2.88;1.67;;;;;;;;;;4988155;28;20049;-81
2023/12/30 04:23:01;;;;;;;2.92;1.50;;;;;;;;;;4987780;28;20123;-80
2023/12/30 04:25:28;;;;;;;2.55;1.75;;;;;;;;;;4988460;28;20076;-80
2023/12/30 04:27:55;;;;;;;2.22;1.55;;;;;;;;;;4998470;28;20064;-80
2023/12/30 04:30:22;;;;;;;3.03;1.77;;;;;;;;;;4978994;28;20104;-80
2023/12/30 04:32:49;;;;;;;3.00;1.70;;;;;;;;;;4985102;28;20053;-80
2023/12/30 04:35:16;;;;;;;3.08;1.92;;;;;;;;;;4984937;28;20086;-80
2023/12/30 04:37:43;;;;;;;5.60;1.65;;;;;;;;;;4977251;28;20050;-80
2023/12/30 04:40:10;;;;;;;2.88;1.42;;;;;;;;;;4985478;28;20119;-80
2023/12/30 04:42:37;;;;;;;1.80;1.63;;;;;;;;;;5022379;28;20030;-81
2023/12/30 04:45:04;;;;;;;2.03;1.33;;;;;;;;;;5015665;28;20069;-81
2023/12/30 04:47:31;;;;;;;2.50;1.73;;;;;;;;;;5001878;28;20090;-81
2023/12/30 04:49:58;;;;;;;1.48;1.38;;;;;;;;;;4997633;28;20042;-82
2023/12/30 04:52:25;;;;;;;4.50;1.60;;;;;;;;;;4991727;28;20088;-81
2023/12/30 04:54:51;;;;;;;1.30;0.95;;;;;;;;;;4980661;28;20069;-80
2023/12/30 04:57:18;;;;;;;5.40;1.77;;;;;;;;;;4967684;28;20064;-80
2023/12/30 04:59:45;;;;;;;2.97;1.83;;;;;;;;;;4988286;28;20096;-80
2023/12/30 05:02:12;;;;;;;1.40;1.30;;;;;;;;;;4967418;28;20165;-80
2023/12/30 05:04:42;;;;;;;3.53;1.38;;;;;;;;;;4983753;28;20050;-81
2023/12/30 05:07:09;;;;;;;2.58;1.23;;;;;;;;;;4967865;28;20050;-81
2023/12/30 05:09:36;;;;;;;3.17;1.48;;;;;;;;;;4981453;28;20058;-82
2023/12/30 05:12:03;;;;;;;3.95;1.30;;;;;;;;;;4962597;28;20060;-82
2023/12/30 05:14:29;;;;;;;1.50;1.40;;;;;;;;;;4960725;28;20050;-81
2023/12/30 05:16:56;;;;;;;1.60;1.10;;;;;;;;;;4975991;28;20077;-82
2023/12/30 05:19:23;;;;;;;5.60;1.75;;;;;;;;;;4982626;28;20104;-82
2023/12/30 05:21:51;;;;;;;2.33;1.15;;;;;;;;;;4982433;28;20066;-82
2023/12/30 05:24:18;;;;;;;2.13;1.40;;;;;;;;;;4966644;28;20066;-81
2023/12/30 05:26:46;;;;;;;2.65;1.00;;;;;;;;;;4975555;28;20077;-82
2023/12/30 05:29:13;;;;;;;2.50;0.98;;;;;;;;;;4964699;28;20057;-81
2023/12/30 05:31:40;;;;;;;1.52;1.10;;;;;;;;;;4966337;28;20077;-81
2023/12/30 05:34:08;;;;;;;1.73;1.10;;;;;;;;;;4962239;28;20073;-81
2023/12/30 05:36:38;;;;;;;2.25;1.00;;;;;;;;;;4965969;28;20058;-82
2023/12/30 05:39:05;;;;;;;0.98;0.90;;;;;;;;;;4961608;28;20082;-82
2023/12/30 05:41:32;;;;;;;1.33;0.95;;;;;;;;;;4981623;28;20571;-81
2023/12/30 05:43:59;;;;;;;2.78;1.15;;;;;;;;;;4965691;28;20077;-82
2023/12/30 05:46:26;;;;;;;2.05;0.90;;;;;;;;;;4962340;28;20061;-81
2023/12/30 05:48:53;;;;;;;0.90;0.60;;;;;;;;;;4961992;28;20109;-82
2023/12/30 05:51:20;;;;;;;2.72;0.95;;;;;;;;;;4980574;28;20520;-81
2023/12/30 05:53:50;;;;;;;2.25;0.60;;;;;;;;;;4981777;28;20057;-81
2023/12/30 05:56:24;;;;;;;2.88;0.95;;;;;;;;;;4981084;28;20444;-81
2023/12/30 05:58:52;;;;;;;0.93;0.63;;;;;;;;;;4964169;28;20052;-82
2023/12/30 06:01:19;;;;;;;0.60;0.60;;;;;;;;;;4964634;28;20465;-82
2023/12/30 06:03:47;;;;;;;1.25;0.70;;;;;;;;;;4966152;28;20061;-81
2023/12/30 06:06:14;;;;;;;3.28;0.95;;;;;;;;;;4981239;28;20100;-81
2023/12/30 06:08:41;;;;;;;1.10;0.60;;;;;;;;;;4964593;28;20046;-82
2023/12/30 06:11:08;;;;;;;0.75;0.73;;;;;;;;;;4960480;28;20097;-81
2023/12/30 06:13:35;;;;;;;1.95;0.77;;;;;;;;;;4965000;28;20524;-81
2023/12/30 06:16:03;;;;;;;2.47;0.70;;;;;;;;;;4964586;28;20051;-81
2023/12/30 06:18:32;;;;;;;2.05;0.80;;;;;;;;;;4980633;28;20505;-80
2023/12/30 06:20:59;;;;;;;1.17;0.50;;;;;;;;;;4981555;28;20046;-81
2023/12/30 06:23:30;;;;;;;2.20;0.60;;;;;;;;;;4956603;28;20050;-81
2023/12/30 06:26:01;;;;;;;1.10;0.80;;;;;;;;;;4963429;28;20050;-80
2023/12/30 06:28:28;;;;;;;1.63;0.85;;;;;;;;;;4977162;28;20133;-80
2023/12/30 06:30:55;;;;;;;0.80;0.80;;;;;;;;;;4978683;28;20132;-81
2023/12/30 06:33:23;;;;;;;1.10;0.88;;;;;;;;;;4981235;28;20049;-80
2023/12/30 06:35:50;;;;;;;0.77;0.60;;;;;;;;;;4964925;28;20053;-81
2023/12/30 06:38:17;;;;;;;1.13;0.50;;;;;;;;;;4961883;28;20050;-80
2023/12/30 06:40:47;;;;;;;2.10;0.73;;;;;;;;;;4962710;28;20042;-81
2023/12/30 06:43:14;;;;;;;1.70;0.80;;;;;;;;;;4977586;28;20073;-79
2023/12/30 06:45:41;;;;;;;0.90;0.52;;;;;;;;;;4966133;28;20046;-79
2023/12/30 06:48:08;;;;;;;2.22;0.60;;;;;;;;;;4962887;28;20088;-80
2023/12/30 06:50:35;;;;;;;0.82;0.70;;;;;;;;;;4964985;28;20053;-80
2023/12/30 06:53:02;;;;;;;1.45;0.40;;;;;;;;;;4964946;28;20094;-80
2023/12/30 06:55:29;;;;;;;2.40;0.50;;;;;;;;;;4960398;28;20042;-80
2023/12/30 06:58:08;;;;;;;2.05;0.60;;;;;;;;;;4970372;28;20058;-80
2023/12/30 07:00:35;;;;;;;2.75;0.55;;;;;;;;;;4963901;28;20061;-82
2023/12/30 07:03:03;;;;;;;0.65;0.50;;;;;;;;;;4982076;28;20116;-83
2023/12/30 07:05:35;;;;;;;0.95;0.57;;;;;;;;;;4963438;28;20045;-84
2023/12/30 07:08:04;;;;;;;4.07;0.70;;;;;;;;;;4989334;28;20130;-84
2023/12/30 07:10:31;;;;;;;1.10;0.77;;;;;;;;;;4962214;28;20160;-84
2023/12/30 07:12:58;;;;;;;2.05;0.60;;;;;;;;;;4954812;28;20077;-83
2023/12/30 07:15:25;;;;;;;0.82;0.50;;;;;;;;;;4956603;28;20049;-79
2023/12/30 07:17:52;;;;;;;1.95;0.63;;;;;;;;;;4978807;28;20046;-83
2023/12/30 07:20:19;;;;;;;2.33;0.60;;;;;;;;;;4961328;28;20584;-78
2023/12/30 07:22:46;;;;;;;1.02;0.60;;;;;;;;;;4970206;28;20050;-82
2023/12/30 07:25:13;;;;;;;1.00;0.63;;;;;;;;;;4976459;28;20047;-77
2023/12/30 07:27:40;;;;;;;2.60;0.80;;;;;;;;;;4942934;28;20587;-79
2023/12/30 07:30:07;;;;;;;2.25;1.15;;;;;;;;;;4962002;28;20162;-79
2023/12/30 07:32:34;;;;;;;0.75;0.50;;;;;;;;;;4963277;28;20054;-78
2023/12/30 07:35:01;;;;;;;2.40;0.80;;;;;;;;;;4962966;28;20518;-79
2023/12/30 07:37:30;;;;;;;1.45;0.60;;;;;;;;;;4961832;28;20127;-78
2023/12/30 07:39:57;;;;;;;0.88;0.80;;;;;;;;;;4961971;28;20061;-78
2023/12/30 07:42:24;;;;;;;1.73;0.98;;;;;;;;;;4977062;28;20085;-78
2023/12/30 07:44:54;;;;;;;1.60;0.85;;;;;;;;;;4962255;28;20104;-77
2023/12/30 07:47:21;;;;;;;2.22;0.82;;;;;;;;;;4972608;28;20046;-78
2023/12/30 07:49:48;;;;;;;3.95;2.03;;;;;;;;;;4979743;28;20058;-79
2023/12/30 07:52:15;;;;;;;5.32;2.30;;;;;;;;;;4957896;28;20599;-76
2023/12/30 07:54:43;;;;;;;4.47;1.83;;;;;;;;;;4963558;28;20046;-77
2023/12/30 07:57:10;;;;;;;3.30;1.80;;;;;;;;;;4950583;28;20096;-78
2023/12/30 07:59:37;;;;;;;4.07;2.38;;;;;;;;;;4959233;28;20058;-78
2023/12/30 08:02:03;;;;;;;3.53;2.10;;;;;;;;;;4975438;28;20080;-77
2023/12/30 08:04:30;;;;;;;5.82;1.50;;;;;;;;;;4977533;28;20060;-77
2023/12/30 08:06:57;;;;;;;2.13;1.20;;;;;;;;;;4967029;28;20549;-77
2023/12/30 08:09:24;;;;;;;2.55;1.15;;;;;;;;;;4974458;28;20424;-77
2023/12/30 08:11:51;;;;;;;2.83;1.10;;;;;;;;;;4992594;28;20050;-78
2023/12/30 08:14:28;;;;;;;1.88;1.10;;;;;;;;;;4983700;28;20054;-77
2023/12/30 08:16:55;;;;;;;1.67;1.10;;;;;;;;;;4978768;28;20655;-79
2023/12/30 08:19:22;;;;;;;5.75;1.38;;;;;;;;;;4964083;28;20057;-76
2023/12/30 08:21:49;;;;;;;2.08;1.20;;;;;;;;;;4974929;28;20131;-77
2023/12/30 08:24:18;;;;;;;1.17;1.08;;;;;;;;;;4980287;28;20132;-77
2023/12/30 08:26:45;;;;;;;1.38;1.10;;;;;;;;;;4962238;28;20065;-77
2023/12/30 08:29:15;;;;;;;3.22;1.20;;;;;;;;;;4960525;28;20069;-78
2023/12/30 08:31:46;;;;;;;1.98;1.10;;;;;;;;;;4969524;28;20133;-79
2023/12/30 08:34:14;;;;;;;1.77;1.50;;;;;;;;;;4980818;28;20500;-76
2023/12/30 08:36:44;;;;;;;3.33;1.10;;;;;;;;;;4985467;28;20080;-81
2023/12/30 08:39:12;;;;;;;1.40;1.05;;;;;;;;;;4981005;28;20064;-77
2023/12/30 08:41:40;;;;;;;3.63;1.08;;;;;;;;;;4962573;28;20104;-77
2023/12/30 08:44:08;;;;;;;1.13;0.93;;;;;;;;;;4950718;28;21454;-77
2023/12/30 08:46:35;;;;;;;2.15;1.00;;;;;;;;;;4952260;28;20589;-77
2023/12/30 08:49:03;;;;;;;2.00;0.98;;;;;;;;;;4986172;28;20089;-77
2023/12/30 08:51:34;;;;;;;1.10;0.90;;;;;;;;;;4973363;28;20120;-79
2023/12/30 08:54:01;;;;;;;1.73;1.27;;;;;;;;;;4957350;28;20791;-77
2023/12/30 08:56:34;;;;;;;1.27;1.00;;;;;;;;;;4970109;28;20050;-76
2023/12/30 08:59:01;;;;;;;1.30;1.10;;;;;;;;;;4957913;28;20085;-77
2023/12/30 09:01:28;;;;;;;2.28;0.98;;;;;;;;;;4960835;28;20077;-76
2023/12/30 09:03:56;;;;;;;3.35;1.70;;;;;;;;;;4969314;28;20050;-78
2023/12/30 09:06:23;;;;;;;1.10;1.02;;;;;;;;;;4960975;28;20096;-77
2023/12/30 09:08:50;;;;;;;1.10;1.00;;;;;;;;;;4981143;28;20125;-77
2023/12/30 09:11:21;;;;;;;4.28;1.73;;;;;;;;;;4968089;28;20088;-77
2023/12/30 09:13:49;;;;;;;2.75;1.50;;;;;;;;;;4956116;28;20509;-77
2023/12/30 09:16:16;;;;;;;1.73;0.90;;;;;;;;;;4969787;28;20433;-77
2023/12/30 09:18:43;;;;;;;1.48;1.13;;;;;;;;;;4975321;28;20049;-78
2023/12/30 09:21:10;;;;;;;1.40;0.70;;;;;;;;;;4973129;28;20517;-78
2023/12/30 09:23:37;;;;;;;1.30;0.90;;;;;;;;;;4974956;28;20486;-77
2023/12/30 09:26:04;;;;;;;1.85;1.20;;;;;;;;;;4953970;28;20520;-78
2023/12/30 09:28:32;;;;;;;1.63;0.88;;;;;;;;;;4959664;28;20073;-76
2023/12/30 09:30:59;;;;;;;1.40;1.20;;;;;;;;;;4953627;28;20074;-77
2023/12/30 09:33:26;;;;;;;5.32;2.20;;;;;;;;;;4954494;28;20513;-77
2023/12/30 09:35:54;;;;;;;3.00;1.20;;;;;;;;;;4967482;28;20077;-77
2023/12/30 09:38:25;;;;;;;1.33;1.00;;;;;;;;;;4969610;28;20049;-77
2023/12/30 09:40:53;;;;;;;1.20;0.88;;;;;;;;;;4959637;28;20051;-78
2023/12/30 09:43:26;;;;;;;3.17;1.35;;;;;;;;;;4953486;28;20046;-77
2023/12/30 09:45:55;;;;;;;3.05;0.90;;;;;;;;;;4966722;28;20129;-77
2023/12/30 09:48:26;;;;;;;1.63;0.90;;;;;;;;;;4958531;28;20050;-77
2023/12/30 09:50:55;;;;;;;3.03;2.05;;;;;;;;;;4960011;28;20081;-77
2023/12/30 09:53:26;;;;;;;3.85;2.22;;;;;;;;;;4961512;28;20042;-77
2023/12/30 09:55:53;;;;;;;9.77;4.35;;;;;;;;;;4962584;28;20041;-77
2023/12/30 09:58:22;;;;;;;17.38;5.75;;;;;;;;;;4954995;28;20053;-76
2023/12/30 10:00:49;;;;;;;9.95;3.80;;;;;;;;;;4954362;28;20054;-76
2023/12/30 10:03:18;;;;;;;2.47;1.73;;;;;;;;;;4958221;28;20057;-77
2023/12/30 10:05:45;;;;;;;1.10;1.00;;;;;;;;;;4952881;28;20523;-77
2023/12/30 10:08:13;;;;;;;1.27;1.10;;;;;;;;;;4949539;28;20058;-77
2023/12/30 10:10:47;;;;;;;1.02;0.93;;;;;;;;;;4967720;28;20553;-78
2023/12/30 10:13:17;;;;;;;0.70;0.70;;;;;;;;;;4969261;28;20049;-77
2023/12/30 10:15:44;;;;;;;0.98;0.60;;;;;;;;;;4956622;28;20073;-77
2023/12/30 10:18:13;;;;;;;2.25;0.90;;;;;;;;;;4957895;28;20113;-77
2023/12/30 10:20:44;;;;;;;2.85;1.30;;;;;;;;;;4973736;28;20050;-77
2023/12/30 10:23:12;;;;;;;1.17;0.57;;;;;;;;;;4956551;28;20050;-79
2023/12/30 10:25:41;;;;;;;2.00;0.80;;;;;;;;;;4992546;28;20133;-82
2023/12/30 10:28:09;;;;;;;2.40;0.60;;;;;;;;;;4974634;28;20065;-81
2023/12/30 10:30:36;;;;;;;0.75;0.70;;;;;;;;;;4965100;28;20081;-80
2023/12/30 10:33:10;;;;;;;1.58;0.73;;;;;;;;;;4972584;28;20110;-81
2023/12/30 10:35:38;;;;;;;1.33;0.80;;;;;;;;;;4973218;28;20046;-81
2023/12/30 10:38:08;;;;;;;1.77;0.38;;;;;;;;;;4956910;28;20119;-82
2023/12/30 10:40:35;;;;;;;1.70;0.47;;;;;;;;;;4967554;28;20493;-80
2023/12/30 10:43:02;;;;;;;2.97;0.70;;;;;;;;;;4979663;28;20052;-80
2023/12/30 10:45:31;;;;;;;2.72;0.40;;;;;;;;;;4961604;28;20109;-78
2023/12/30 10:47:59;;;;;;;2.25;0.68;;;;;;;;;;4978457;28;20046;-79
2023/12/30 10:50:27;;;;;;;0.85;0.50;;;;;;;;;;4956664;28;20104;-80
2023/12/30 10:53:10;;;;;;;0.77;0.38;;;;;;;;;;4978208;28;20050;-80
2023/12/30 10:55:40;;;;;;;0.93;0.40;;;;;;;;;;4957309;28;20128;-80
2023/12/30 10:58:18;;;;;;;0.60;0.52;;;;;;;;;;4962602;28;20050;-80
2023/12/30 11:00:48;;;;;;;2.13;0.57;;;;;;;;;;4959073;28;20050;-79
2023/12/30 11:03:16;;;;;;;2.63;0.50;;;;;;;;;;4979636;28;20050;-81
2023/12/30 11:05:52;;;;;;;1.83;0.70;;;;;;;;;;4952983;28;20052;-80
2023/12/30 11:08:19;;;;;;;3.42;0.90;;;;;;;;;;4981016;28;20050;-80
2023/12/30 11:10:47;;;;;;;1.52;0.30;;;;;;;;;;4977316;28;20045;-81
2023/12/30 11:13:14;;;;;;;3.15;0.90;;;;;;;;;;4961382;28;20437;-81
2023/12/30 11:15:43;;;;;;;1.73;0.40;;;;;;;;;;4977013;28;20053;-80
2023/12/30 11:18:13;;;;;;;2.22;0.50;;;;;;;;;;4991679;28;20054;-80
2023/12/30 11:20:48;;;;;;;1.42;0.70;;;;;;;;;;4963855;28;20104;-81
2023/12/30 11:23:18;;;;;;;2.92;0.40;;;;;;;;;;4966791;28;20057;-80
2023/12/30 11:25:46;;;;;;;0.90;0.43;;;;;;;;;;4970218;28;20050;-79
2023/12/30 11:28:18;;;;;;;0.73;0.45;;;;;;;;;;4950569;28;20421;-78
2023/12/30 11:30:58;;;;;;;1.45;0.63;;;;;;;;;;4952314;28;20046;-78
2023/12/30 11:33:25;;;;;;;1.23;0.40;;;;;;;;;;4973057;28;20050;-78
2023/12/30 11:35:56;;;;;;;1.60;0.82;;;;;;;;;;4950657;28;20049;-78
2023/12/30 11:38:26;;;;;;;0.70;0.30;;;;;;;;;;4961854;28;20068;-79
2023/12/30 11:40:56;;;;;;;0.10;0.10;;;;;;;;;;4979880;28;20136;-79
2023/12/30 11:43:25;;;;;;;2.05;0.50;;;;;;;;;;4976146;28;20077;-79
2023/12/30 11:45:53;;;;;;;1.73;0.43;;;;;;;;;;4965368;28;20038;-79
2023/12/30 11:48:20;;;;;;;1.60;0.40;;;;;;;;;;4980722;28;20228;-79
2023/12/30 11:50:53;;;;;;;0.50;0.40;;;;;;;;;;4964783;28;20080;-80
2023/12/30 11:53:21;;;;;;;1.45;0.22;;;;;;;;;;4967348;28;20128;-79
2023/12/30 11:55:48;;;;;;;1.83;0.52;;;;;;;;;;4981915;28;20046;-80
2023/12/30 11:58:17;;;;;;;0.75;0.50;;;;;;;;;;5015369;28;20057;-79
2023/12/30 12:00:44;;;;;;;1.75;0.25;;;;;;;;;;4990707;28;20046;-79
2023/12/30 12:03:11;;;;;;;1.15;0.63;;;;;;;;;;4977521;28;20046;-77
2023/12/30 12:05:38;;;;;;;0.70;0.50;;;;;;;;;;4968377;28;20124;-77
2023/12/30 12:08:08;;;;;;;0.88;0.50;;;;;;;;;;4955810;28;20057;-78
2023/12/30 12:10:35;;;;;;;1.02;0.30;;;;;;;;;;4967538;28;20126;-80
2023/12/30 12:13:05;;;;;;;1.42;0.30;;;;;;;;;;4975731;28;20054;-77
2023/12/30 12:15:33;;;;;;;1.60;0.30;;;;;;;;;;4963969;28;20057;-77
2023/12/30 12:18:00;;;;;;;0.63;0.30;;;;;;;;;;4976843;28;20045;-76
2023/12/30 12:20:28;;;;;;;1.33;0.20;;;;;;;;;;4961052;28;20141;-76
2023/12/30 12:22:55;;;;;;;1.45;0.28;;;;;;;;;;4986922;28;20128;-77
2023/12/30 12:25:22;;;;;;;0.70;0.28;;;;;;;;;;4953203;28;20156;-76
2023/12/30 12:27:49;;;;;;;0.98;0.60;;;;;;;;;;4951909;28;20053;-77
2023/12/30 12:30:16;;;;;;;1.10;0.47;;;;;;;;;;4965762;28;20532;-76
2023/12/30 12:32:43;;;;;;;1.95;0.73;;;;;;;;;;4961077;28;20050;-76
2023/12/30 12:35:11;;;;;;;0.98;0.55;;;;;;;;;;4984269;28;21160;-77
2023/12/30 12:37:38;;;;;;;0.80;0.40;;;;;;;;;;4972263;28;20057;-77
2023/12/30 12:40:10;;;;;;;1.48;0.32;;;;;;;;;;4978098;28;20105;-77
2023/12/30 12:42:37;;;;;;;1.45;0.68;;;;;;;;;;4960941;28;20061;-76
2023/12/30 12:45:05;;;;;;;1.25;0.30;;;;;;;;;;4990854;28;20490;-77
2023/12/30 12:47:32;;;;;;;1.05;0.68;;;;;;;;;;4962198;28;20050;-77
2023/12/30 12:50:00;;;;;;;1.75;0.40;;;;;;;;;;4952893;28;20057;-77
2023/12/30 12:52:28;;;;;;;1.17;0.35;;;;;;;;;;4966339;28;20533;-77
2023/12/30 12:54:55;;;;;;;1.38;0.50;;;;;;;;;;4984686;28;20132;-77
2023/12/30 12:57:23;;;;;;;0.90;0.60;;;;;;;;;;4951235;28;20398;-77
2023/12/30 12:59:50;;;;;;;1.15;0.50;;;;;;;;;;4976111;28;20148;-77
2023/12/30 13:02:18;;;;;;;2.58;0.40;;;;;;;;;;4972198;28;20046;-77
2023/12/30 13:04:45;;;;;;;1.08;0.55;;;;;;;;;;4965803;28;20049;-77
2023/12/30 13:07:13;;;;;;;1.17;0.50;;;;;;;;;;4953703;28;20057;-77
2023/12/30 13:09:59;;;;;;;0.40;0.35;;;;;;;;;;4971181;28;20058;-77
2023/12/30 13:12:26;;;;;;;2.10;0.40;;;;;;;;;;4965974;28;20050;-76
2023/12/30 13:14:58;;;;;;;1.13;0.50;;;;;;;;;;4976185;28;20078;-77
2023/12/30 13:17:26;;;;;;;1.95;0.30;;;;;;;;;;4977143;28;20069;-77
2023/12/30 13:19:53;;;;;;;0.60;0.32;;;;;;;;;;4974175;28;20495;-77
2023/12/30 13:22:22;;;;;;;0.35;0.35;;;;;;;;;;4953002;28;20129;-77
2023/12/30 13:24:51;;;;;;;0.82;0.32;;;;;;;;;;4951901;28;20100;-77
2023/12/30 13:27:18;;;;;;;0.93;0.60;;;;;;;;;;4981502;28;20050;-76
2023/12/30 13:29:45;;;;;;;1.95;0.50;;;;;;;;;;4964437;28;20137;-77
2023/12/30 13:32:15;;;;;;;1.58;0.60;;;;;;;;;;4985628;28;20045;-76
2023/12/30 13:34:43;;;;;;;2.65;0.60;;;;;;;;;;4977569;28;20052;-76
2023/12/30 13:37:11;;;;;;;0.57;0.38;;;;;;;;;;4973915;28;20054;-76
2023/12/30 13:39:41;;;;;;;1.35;0.50;;;;;;;;;;4968027;28;20058;-76
2023/12/30 13:42:10;;;;;;;0.68;0.57;;;;;;;;;;4974100;28;20058;-76
2023/12/30 13:44:45;;;;;;;0.88;0.52;;;;;;;;;;4982488;28;20054;-76
2023/12/30 13:52:42;;;;;;;3.20;0.40;;;;;;;;;;4984008;28;20050;-77
2023/12/30 13:55:13;;;;;;;0.68;0.28;;;;;;;;;;4950769;28;20058;-77
2023/12/30 13:57:42;;;;;;;1.65;0.40;;;;;;;;;;4963205;28;20056;-77
2023/12/30 14:00:12;;;;;;;0.93;0.47;;;;;;;;;;4956928;28;20056;-77
2023/12/30 14:02:40;;;;;;;0.65;0.40;;;;;;;;;;4972022;28;20046;-77
2023/12/30 14:05:17;;;;;;;0.50;0.30;;;;;;;;;;4975312;28;20057;-77
2023/12/30 14:07:44;;;;;;;1.35;0.90;;;;;;;;;;4962423;28;20121;-76
2023/12/30 14:10:17;;;;;;;2.40;0.90;;;;;;;;;;4979396;28;20082;-76
2023/12/30 14:12:46;;;;;;;0.82;0.73;;;;;;;;;;4972652;28;20342;-77
2023/12/30 14:15:16;;;;;;;1.75;1.02;;;;;;;;;;4975019;28;20505;-76
2023/12/30 14:17:43;;;;;;;1.95;0.60;;;;;;;;;;4987031;28;20082;-77
2023/12/30 14:20:11;;;;;;;0.65;0.60;;;;;;;;;;4961618;28;20069;-77
2023/12/30 14:22:39;;;;;;;2.00;1.17;;;;;;;;;;5068144;23;20056;-77
2023/12/30 14:25:11;;;;;;;1.40;0.60;;;;;;;;;;5020160;28;20057;-79
2023/12/30 14:27:40;;;;;;;1.30;0.50;;;;;;;;;;5000461;28;20045;-79
2023/12/30 14:30:11;;;;;;;0.95;0.50;;;;;;;;;;5000115;28;20053;-78
2023/12/30 14:32:41;;;;;;;0.60;0.40;;;;;;;;;;5017852;28;20049;-80
2023/12/30 14:35:09;;;;;;;2.05;0.35;;;;;;;;;;5016814;28;20202;-78
2023/12/30 14:37:39;;;;;;;1.63;0.52;;;;;;;;;;5017267;28;20052;-79
2023/12/30 14:40:07;;;;;;;2.47;0.60;;;;;;;;;;5015475;28;20050;-79
2023/12/30 14:42:35;;;;;;;0.95;0.50;;;;;;;;;;4995733;28;20533;-78
2023/12/30 14:45:04;;;;;;;0.77;0.65;;;;;;;;;;5014214;28;20045;-78
2023/12/30 14:47:36;;;;;;;2.25;0.52;;;;;;;;;;5012377;28;20445;-80
2023/12/30 14:50:07;;;;;;;2.30;0.80;;;;;;;;;;4998693;28;20108;-79
2023/12/30 14:52:36;;;;;;;2.65;0.95;;;;;;;;;;4997957;28;20076;-79